createdAt,value
2023-03-05T00:01:33.573Z,-4.32
2023-03-05T00:04:04.347Z,-4.35
2023-03-05T00:06:33.447Z,-4.37
2023-03-05T00:09:01.598Z,-4.40
2023-03-05T00:11:30.577Z,-4.42
2023-03-05T00:13:59.891Z,-4.45
2023-03-05T00:16:29.447Z,-4.46
2023-03-05T00:18:59.308Z,-4.49
2023-03-05T00:21:30.540Z,-4.50
2023-03-05T00:24:01.713Z,-4.51
2023-03-05T00:26:31.499Z,-4.52
2023-03-05T00:28:59.913Z,-4.53
2023-03-05T00:31:30.834Z,-4.56
2023-03-05T00:34:05.438Z,-4.55
2023-03-05T00:36:33.732Z,-4.56
2023-03-05T00:39:01.747Z,-4.57
2023-03-05T00:41:29.974Z,-4.58
2023-03-05T00:43:58.173Z,-4.59
2023-03-05T00:46:27.721Z,-4.61
2023-03-05T00:48:57.251Z,-4.64
2023-03-05T00:51:26.752Z,-4.66
2023-03-05T00:53:55.596Z,-4.68
2023-03-05T00:56:23.818Z,-4.69
2023-03-05T00:58:53.457Z,-4.72
2023-03-05T01:01:22.327Z,-4.74
2023-03-05T01:03:50.889Z,-4.75
2023-03-05T01:06:19.392Z,-4.75
2023-03-05T01:08:47.432Z,-4.75
2023-03-05T01:11:15.468Z,-4.76
2023-03-05T01:13:43.490Z,-4.78
2023-03-05T01:16:11.876Z,-4.80
2023-03-05T01:18:40.672Z,-4.83
2023-03-05T01:21:09.107Z,-4.86
2023-03-05T01:23:37.684Z,-4.89
2023-03-05T01:26:06.916Z,-4.91
2023-03-05T01:28:34.851Z,-4.94
2023-03-05T01:31:07.071Z,-4.95
2023-03-05T01:33:35.192Z,-4.97
2023-03-05T01:36:07.564Z,-4.98
2023-03-05T01:38:35.637Z,-4.98
2023-03-05T01:41:03.714Z,-5.00
2023-03-05T01:43:31.782Z,-5.02
2023-03-05T01:46:24.531Z,-5.04
2023-03-05T01:48:59.329Z,-5.06
2023-03-05T01:51:30.696Z,-5.07
2023-03-05T01:54:01.028Z,-5.08
2023-03-05T01:56:31.152Z,-5.08
2023-03-05T01:59:03.848Z,-5.08
2023-03-05T02:01:38.778Z,-5.09
2023-03-05T02:04:09.591Z,-5.11
2023-03-05T02:06:39.781Z,-5.11
2023-03-05T02:09:07.781Z,-5.11
2023-03-05T02:11:36.781Z,-5.12
2023-03-05T02:14:07.323Z,-5.12
2023-03-05T02:16:38.928Z,-5.14
2023-03-05T02:19:10.928Z,-5.14
2023-03-05T02:21:45.859Z,-5.13
2023-03-05T02:24:16.766Z,-5.13
2023-03-05T02:26:46.950Z,-5.15
2023-03-05T02:29:19.536Z,-5.16
2023-03-05T02:31:47.635Z,-5.15
2023-03-05T02:34:16.156Z,-5.16
2023-03-05T02:36:44.215Z,-5.17
2023-03-05T02:39:12.926Z,-5.19
2023-03-05T02:41:40.981Z,-5.23
2023-03-05T02:44:09.551Z,-5.24
2023-03-05T02:46:37.537Z,-5.26
2023-03-05T02:49:06.007Z,-5.29
2023-03-05T02:51:34.281Z,-5.30
2023-03-05T02:54:02.660Z,-5.33
2023-03-05T02:56:31.246Z,-5.36
2023-03-05T02:59:01.666Z,-5.37
2023-03-05T03:01:30.125Z,-5.39
2023-03-05T03:03:59.569Z,-5.40
2023-03-05T03:06:27.528Z,-5.42
2023-03-05T03:08:55.614Z,-5.44
2023-03-05T03:11:23.665Z,-5.44
2023-03-05T03:13:51.732Z,-5.44
2023-03-05T03:16:20.368Z,-5.44
2023-03-05T03:18:49.150Z,-5.44
2023-03-05T03:21:20.348Z,-5.44
2023-03-05T03:23:48.555Z,-5.44
2023-03-05T03:26:17.516Z,-5.44
2023-03-05T03:28:46.109Z,-5.42
2023-03-05T03:31:15.087Z,-5.38
2023-03-05T03:33:43.268Z,-5.36
2023-03-05T03:36:11.382Z,-5.34
2023-03-05T03:38:39.655Z,-5.33
2023-03-05T03:41:08.267Z,-5.33
2023-03-05T03:43:36.900Z,-5.32
2023-03-05T03:46:08.301Z,-5.29
2023-03-05T03:48:36.611Z,-5.27
2023-03-05T03:51:06.807Z,-5.24
2023-03-05T03:53:34.922Z,-5.21
2023-03-05T03:56:03.685Z,-5.19
2023-03-05T03:58:32.608Z,-5.16
2023-03-05T04:01:00.855Z,-5.17
2023-03-05T04:03:28.881Z,-5.17
2023-03-05T04:05:56.894Z,-5.17
2023-03-05T04:08:24.964Z,-5.17
2023-03-05T04:10:52.999Z,-5.18
2023-03-05T04:13:21.129Z,-5.21
2023-03-05T04:15:50.600Z,-5.24
2023-03-05T04:18:18.790Z,-5.26
2023-03-05T04:20:46.970Z,-5.29
2023-03-05T04:23:15.162Z,-5.32
2023-03-05T04:25:43.822Z,-5.35
2023-03-05T04:28:12.818Z,-5.36
2023-03-05T04:30:40.775Z,-5.37
2023-03-05T04:33:08.854Z,-5.37
2023-03-05T04:35:37.074Z,-5.38
2023-03-05T04:38:05.194Z,-5.39
2023-03-05T04:40:34.192Z,-5.37
2023-03-05T04:43:02.828Z,-5.33
2023-03-05T04:45:31.069Z,-5.28
2023-03-05T04:47:59.214Z,-5.21
2023-03-05T04:50:27.495Z,-5.14
2023-03-05T04:52:55.501Z,-5.08
2023-03-05T04:55:23.446Z,-5.02
2023-03-05T04:57:51.398Z,-4.96
2023-03-05T05:00:19.699Z,-4.89
2023-03-05T05:02:50.169Z,-4.82
2023-03-05T05:05:21.997Z,-4.75
2023-03-05T05:07:50.545Z,-4.68
2023-03-05T05:10:18.591Z,-4.61
2023-03-05T05:12:46.462Z,-4.55
2023-03-05T05:15:14.647Z,-4.48
2023-03-05T05:17:42.576Z,-4.42
2023-03-05T05:20:12.529Z,-4.37
2023-03-05T05:22:40.650Z,-4.33
2023-03-05T05:25:10.524Z,-4.28
2023-03-05T05:27:40.086Z,-4.23
2023-03-05T05:30:09.878Z,-4.18
2023-03-05T05:32:37.897Z,-4.12
2023-03-05T05:35:06.323Z,-4.07
2023-03-05T05:46:45.268Z,-3.80
2023-03-05T05:49:13.235Z,-3.75
2023-03-05T05:51:41.419Z,-3.69
2023-03-05T05:58:47.241Z,-3.48
2023-03-05T06:01:31.020Z,-3.43
2023-03-05T06:04:00.095Z,-3.36
2023-03-05T06:11:03.204Z,-3.25
2023-03-05T06:13:31.075Z,-3.22
2023-03-05T06:16:01.038Z,-3.19
2023-03-05T06:27:37.127Z,-2.84
2023-03-05T06:30:06.751Z,-2.75
2023-03-05T06:32:34.792Z,-2.67
2023-03-05T06:35:03.274Z,-2.59
2023-03-05T06:37:31.377Z,-2.54
2023-03-05T06:39:59.340Z,-2.51
2023-03-05T06:42:27.181Z,-2.52
2023-03-05T06:44:55.053Z,-2.57
2023-03-05T06:47:22.867Z,-2.60
2023-03-05T06:49:50.849Z,-2.61
2023-03-05T06:52:18.733Z,-2.64
2023-03-05T06:54:46.566Z,-2.66
2023-03-05T06:57:14.422Z,-2.65
2023-03-05T06:59:42.238Z,-2.62
2023-03-05T07:02:12.023Z,-2.61
2023-03-05T07:04:40.563Z,-2.60
2023-03-05T07:07:08.439Z,-2.58
2023-03-05T07:09:42.816Z,-2.55
2023-03-05T07:12:11.889Z,-2.48
2023-03-05T07:14:39.787Z,-2.37
2023-03-05T07:17:08.151Z,-2.26
2023-03-05T07:19:36.153Z,-2.12
2023-03-05T07:22:04.006Z,-1.91
2023-03-05T07:24:31.850Z,-1.64
2023-03-05T07:26:59.740Z,-1.37
2023-03-05T07:29:28.471Z,-1.11
2023-03-05T07:31:56.332Z,-0.85
2023-03-05T07:34:26.806Z,-0.58
2023-03-05T07:36:54.978Z,-0.31
2023-03-05T07:39:23.317Z,-0.07
2023-03-05T07:41:51.827Z,0.17
2023-03-05T07:44:27.148Z,0.36
2023-03-05T07:56:06.660Z,0.87
2023-03-05T08:03:08.997Z,1.11
2023-03-05T08:05:39.905Z,1.17
2023-03-05T08:08:08.692Z,1.22
2023-03-05T08:10:37.944Z,1.32
2023-03-05T08:13:06.314Z,1.40
2023-03-05T08:15:34.395Z,1.51
2023-03-05T08:18:02.366Z,1.64
2023-03-05T08:20:30.993Z,1.77
2023-03-05T08:22:58.987Z,1.88
2023-03-05T08:25:26.819Z,1.99
2023-03-05T08:27:55.123Z,2.07
2023-03-05T08:30:27.805Z,2.14
2023-03-05T08:32:56.220Z,2.26
2023-03-05T08:35:24.547Z,2.37
2023-03-05T08:37:52.468Z,2.47
2023-03-05T08:40:20.448Z,2.60
2023-03-05T08:42:48.492Z,2.72
2023-03-05T08:45:16.493Z,2.74
2023-03-05T08:47:44.333Z,2.74
2023-03-05T08:50:12.325Z,2.70
2023-03-05T08:52:40.322Z,2.70
2023-03-05T08:55:08.785Z,2.68
2023-03-05T08:57:36.660Z,2.72
2023-03-05T09:00:05.460Z,2.76
2023-03-05T09:02:33.542Z,2.77
2023-03-05T09:05:01.578Z,2.77
2023-03-05T09:07:30.022Z,2.78
2023-03-05T09:09:57.969Z,2.76
2023-03-05T09:12:25.920Z,2.79
2023-03-05T09:14:57.243Z,2.75
2023-03-05T09:17:25.335Z,2.73
2023-03-05T09:19:53.302Z,2.76
2023-03-05T09:22:21.320Z,2.79
2023-03-05T09:24:49.320Z,2.82
2023-03-05T09:27:17.359Z,2.84
2023-03-05T09:29:45.314Z,2.84
2023-03-05T09:32:13.284Z,2.88
2023-03-05T09:34:41.353Z,2.85
2023-03-05T09:37:09.348Z,2.85
2023-03-05T09:39:37.281Z,2.84
2023-03-05T09:42:27.149Z,2.80
2023-03-05T09:45:18.354Z,2.76
2023-03-05T09:47:56.976Z,2.70
2023-03-05T09:50:50.625Z,2.65
2023-03-05T09:53:34.315Z,2.60
2023-03-05T09:56:10.325Z,2.56
2023-03-05T09:58:44.146Z,2.57
2023-03-05T10:01:35.539Z,2.60
2023-03-05T10:04:13.849Z,2.64
2023-03-05T10:07:08.842Z,2.60
2023-03-05T10:09:50.601Z,2.56
2023-03-05T10:12:42.412Z,2.60
2023-03-05T10:15:26.980Z,2.65
2023-03-05T10:18:36.060Z,2.70
2023-03-05T10:21:16.786Z,2.76
2023-03-05T10:24:03.976Z,2.78
2023-03-05T10:26:45.156Z,2.76
2023-03-05T10:29:32.009Z,2.73
2023-03-05T10:32:10.553Z,2.69
2023-03-05T10:34:57.381Z,2.70
2023-03-05T10:38:03.682Z,2.67
2023-03-05T10:40:41.814Z,2.63
2023-03-05T10:43:27.506Z,2.54
2023-03-05T10:45:58.836Z,2.52
2023-03-05T10:48:45.826Z,2.58
2023-03-05T10:51:19.470Z,2.58
2023-03-05T10:53:59.847Z,2.58
2023-03-05T10:56:31.901Z,2.59
2023-03-05T10:58:59.998Z,2.61
2023-03-05T11:01:29.313Z,2.61
2023-03-05T11:04:03.729Z,2.56
2023-03-05T11:06:39.864Z,2.49
2023-03-05T11:09:32.910Z,2.35
2023-03-05T11:12:12.236Z,2.30
2023-03-05T11:15:20.220Z,2.27
2023-03-05T11:18:07.883Z,2.28
2023-03-05T11:20:40.865Z,2.35
2023-03-05T11:23:25.871Z,2.36
2023-03-05T11:26:25.331Z,2.25
2023-03-05T11:29:00.905Z,2.14
2023-03-05T11:31:35.234Z,2.18
2023-03-05T11:34:23.890Z,2.24
2023-03-05T11:37:08.898Z,2.22
2023-03-05T11:39:40.881Z,2.23
2023-03-05T11:42:25.931Z,2.22
2023-03-05T11:44:57.922Z,2.22
2023-03-05T11:47:56.798Z,2.19
2023-03-05T11:50:32.923Z,2.10
2023-03-05T11:53:29.898Z,2.05
2023-03-05T11:56:28.112Z,1.99
2023-03-05T11:59:12.976Z,1.95
2023-03-05T12:01:50.933Z,1.90
2023-03-05T12:04:22.936Z,1.90
2023-03-05T12:14:37.205Z,1.81
2023-03-05T12:17:14.086Z,1.74
2023-03-05T12:19:53.522Z,1.71
2023-03-05T12:22:24.256Z,1.73
2023-03-05T12:24:53.371Z,1.71
2023-03-05T12:27:47.849Z,1.79
2023-03-05T12:30:34.139Z,1.78
2023-03-05T12:33:04.611Z,1.75
2023-03-05T12:35:40.943Z,1.71
2023-03-05T12:38:26.705Z,1.63
2023-03-05T12:41:20.902Z,1.55
2023-03-05T12:44:07.318Z,1.48
2023-03-05T12:46:40.112Z,1.47
2023-03-05T12:49:28.531Z,1.51
2023-03-05T12:52:01.443Z,1.40
2023-03-05T12:54:31.535Z,1.25
2023-03-05T12:57:17.650Z,1.18
2023-03-05T12:59:56.351Z,1.11
2023-03-05T13:02:43.366Z,1.12
2023-03-05T13:05:23.364Z,1.06
2023-03-05T13:07:51.996Z,1.04
2023-03-05T13:10:29.458Z,1.05
2023-03-05T13:12:58.812Z,1.00
2023-03-05T13:15:27.206Z,1.01
2023-03-05T13:18:08.710Z,0.99
2023-03-05T13:20:38.672Z,0.88
2023-03-05T13:23:26.920Z,0.87
2023-03-05T13:25:59.698Z,0.90
2023-03-05T13:28:28.685Z,0.96
2023-03-05T13:31:04.038Z,0.93
2023-03-05T13:33:35.168Z,0.83
2023-03-05T13:36:05.178Z,0.80
2023-03-05T13:38:40.385Z,0.82
2023-03-05T13:41:20.298Z,0.87
2023-03-05T13:43:53.146Z,0.90
2023-03-05T13:46:31.708Z,0.94
2023-03-05T13:49:19.303Z,0.96
2023-03-05T13:51:51.438Z,0.94
2023-03-05T13:54:20.250Z,1.00
2023-03-05T13:56:50.980Z,0.97
2023-03-05T13:59:22.341Z,0.84
2023-03-05T14:01:51.738Z,0.76
2023-03-05T14:04:23.797Z,0.70
2023-03-05T14:06:56.984Z,0.72
2023-03-05T14:09:31.345Z,0.76
2023-03-05T14:12:05.347Z,0.71
2023-03-05T14:14:38.135Z,0.71
2023-03-05T14:17:27.385Z,0.74
2023-03-05T14:20:13.400Z,0.75
2023-03-05T14:22:45.481Z,0.76
2023-03-05T14:25:38.221Z,0.77
2023-03-05T14:28:18.748Z,0.79
2023-03-05T14:30:49.450Z,0.76
2023-03-05T14:33:38.295Z,0.77
2023-03-05T14:36:08.560Z,0.80
2023-03-05T14:38:42.987Z,0.79
2023-03-05T14:41:41.792Z,0.72
2023-03-05T14:44:15.995Z,0.72
2023-03-05T14:46:49.319Z,0.66
2023-03-05T14:49:18.055Z,0.63
2023-03-05T14:51:47.264Z,0.63
2023-03-05T14:54:21.091Z,0.65
2023-03-05T14:56:49.954Z,0.64
2023-03-05T14:59:21.141Z,0.64
2023-03-05T15:01:51.137Z,0.68
2023-03-05T15:04:20.163Z,0.67
2023-03-05T15:06:51.136Z,0.62
2023-03-05T15:09:21.259Z,0.61
2023-03-05T15:11:49.442Z,0.59
2023-03-05T15:14:17.515Z,0.59
2023-03-05T15:16:46.121Z,0.56
2023-03-05T15:19:14.159Z,0.55
2023-03-05T15:21:42.450Z,0.52
2023-03-05T15:24:11.494Z,0.47
2023-03-05T15:26:40.011Z,0.45
2023-03-05T15:29:07.948Z,0.38
2023-03-05T15:31:38.863Z,0.29
2023-03-05T15:34:07.297Z,0.21
2023-03-05T15:36:35.980Z,0.17
2023-03-05T15:39:04.154Z,0.11
2023-03-05T15:41:32.222Z,0.04
2023-03-05T15:44:00.247Z,-0.03
2023-03-05T15:46:28.468Z,-0.05
2023-03-05T15:48:56.752Z,-0.10
2023-03-05T15:51:25.236Z,-0.16
2023-03-05T15:53:54.573Z,-0.23
2023-03-05T15:56:23.854Z,-0.30
2023-03-05T15:58:52.626Z,-0.35
2023-03-05T16:01:21.264Z,-0.38
2023-03-05T16:03:51.256Z,-0.41
2023-03-05T16:06:23.618Z,-0.42
2023-03-05T16:08:56.201Z,-0.44
2023-03-05T16:11:24.751Z,-0.50
2023-03-05T16:13:52.823Z,-0.53
2023-03-05T16:16:23.767Z,-0.58
2023-03-05T16:18:53.618Z,-0.63
2023-03-05T16:21:21.743Z,-0.66
2023-03-05T16:23:50.152Z,-0.72
2023-03-05T16:26:19.013Z,-0.75
2023-03-05T16:28:46.966Z,-0.81
2023-03-05T16:31:14.881Z,-0.89
2023-03-05T16:33:42.922Z,-0.95
2023-03-05T16:36:11.532Z,-0.99
2023-03-05T16:38:39.574Z,-1.03
2023-03-05T16:41:08.869Z,-1.07
2023-03-05T16:43:37.070Z,-1.11
2023-03-05T16:46:05.439Z,-1.14
2023-03-05T16:48:33.404Z,-1.17
2023-03-05T16:51:01.384Z,-1.20
2023-03-05T16:53:29.739Z,-1.22
2023-03-05T16:55:57.754Z,-1.25
2023-03-05T16:58:25.886Z,-1.28
2023-03-05T17:00:54.102Z,-1.31
2023-03-05T17:03:22.840Z,-1.33
2023-03-05T17:05:51.021Z,-1.36
2023-03-05T17:08:19.189Z,-1.40
2023-03-05T17:10:47.259Z,-1.45
2023-03-05T17:13:15.332Z,-1.49
2023-03-05T17:18:16.286Z,-1.56
2023-03-05T17:20:44.287Z,-1.58
2023-03-05T17:23:12.342Z,-1.60
2023-03-05T17:25:40.292Z,-1.61
2023-03-05T17:28:08.302Z,-1.61
2023-03-05T17:30:37.357Z,-1.61
2023-03-05T17:33:05.837Z,-1.67
2023-03-05T17:35:35.537Z,-1.73
2023-03-05T17:38:05.467Z,-1.80
2023-03-05T17:40:34.558Z,-1.85
2023-03-05T17:43:04.109Z,-1.88
2023-03-05T17:45:32.825Z,-1.93
2023-03-05T17:48:01.429Z,-1.96
2023-03-05T17:50:29.706Z,-2.00
2023-03-05T17:52:57.918Z,-2.03
2023-03-05T17:55:25.958Z,-2.04
2023-03-05T17:57:54.229Z,-2.05
2023-03-05T18:00:24.736Z,-2.08
2023-03-05T18:02:53.955Z,-2.11
2023-03-05T18:05:24.310Z,-2.20
2023-03-05T18:07:52.968Z,-2.29
2023-03-05T18:10:22.778Z,-2.37
2023-03-05T18:12:51.080Z,-2.46
2023-03-05T18:15:21.404Z,-2.54
2023-03-05T18:17:49.432Z,-2.62
2023-03-05T18:20:28.184Z,-2.71
2023-03-05T18:22:58.023Z,-2.79
2023-03-05T18:25:31.342Z,-2.86
2023-03-05T18:28:11.648Z,-2.91
2023-03-05T18:30:41.136Z,-2.94
2023-03-05T18:33:19.903Z,-2.98
2023-03-05T18:35:52.076Z,-3.00
2023-03-05T18:38:25.278Z,-3.02
2023-03-05T18:40:55.354Z,-3.03
2023-03-05T18:43:24.670Z,-3.04
2023-03-05T18:45:55.378Z,-3.06
2023-03-05T18:48:23.523Z,-3.08
2023-03-05T18:50:53.989Z,-3.13
2023-03-05T18:53:24.703Z,-3.17
2023-03-05T18:55:53.513Z,-3.21
2023-03-05T18:58:22.735Z,-3.25
2023-03-05T19:00:52.091Z,-3.31
2023-03-05T19:03:21.873Z,-3.37
2023-03-05T19:05:51.455Z,-3.41
2023-03-05T19:08:20.598Z,-3.47
2023-03-05T19:10:48.589Z,-3.55
2023-03-05T19:13:37.019Z,-3.61
2023-03-05T19:16:30.388Z,-3.67
2023-03-05T19:19:13.871Z,-3.74
2023-03-05T19:21:48.301Z,-3.76
2023-03-05T19:24:17.437Z,-3.79
2023-03-05T19:26:46.334Z,-3.80
2023-03-05T19:29:15.621Z,-3.82
2023-03-05T19:31:43.613Z,-3.83
2023-03-05T19:34:12.176Z,-3.83
2023-03-05T19:36:40.146Z,-3.83
2023-03-05T19:39:08.534Z,-3.84
2023-03-05T19:41:37.204Z,-3.86
2023-03-05T19:44:06.208Z,-3.88
2023-03-05T19:46:34.348Z,-3.90
2023-03-05T19:49:02.435Z,-3.94
2023-03-05T19:51:30.752Z,-3.99
2023-03-05T19:53:58.784Z,-4.04
2023-03-05T19:56:27.075Z,-4.08
2023-03-05T19:58:55.142Z,-4.11
2023-03-05T20:01:27.865Z,-4.14
2023-03-05T20:03:58.747Z,-4.17
2023-03-05T20:06:28.106Z,-4.21
2023-03-05T20:08:57.447Z,-4.24
2023-03-05T20:11:26.896Z,-4.26
2023-03-05T20:13:57.221Z,-4.28
2023-03-05T20:16:29.844Z,-4.28
2023-03-05T20:18:59.574Z,-4.28
2023-03-05T20:21:30.839Z,-4.27
2023-03-05T20:24:02.397Z,-4.27
2023-03-05T20:26:31.258Z,-4.24
2023-03-05T20:28:59.528Z,-4.24
2023-03-05T20:31:28.374Z,-4.25
2023-03-05T20:33:57.033Z,-4.26
2023-03-05T20:36:25.129Z,-4.30
2023-03-05T20:38:53.249Z,-4.32
2023-03-05T20:41:22.035Z,-4.36
2023-03-05T20:43:51.745Z,-4.39
2023-03-05T20:46:26.330Z,-4.43
2023-03-05T20:48:57.769Z,-4.48
2023-03-05T20:51:38.026Z,-4.52
2023-03-05T20:54:09.069Z,-4.56
2023-03-05T20:56:38.112Z,-4.61
2023-03-05T20:59:09.042Z,-4.65
2023-03-05T21:01:40.211Z,-4.71
2023-03-05T21:04:09.264Z,-4.75
2023-03-05T21:06:37.463Z,-4.77
2023-03-05T21:09:05.861Z,-4.80
2023-03-05T21:11:35.962Z,-4.81
2023-03-05T21:14:04.151Z,-4.81
2023-03-05T21:16:32.510Z,-4.81
2023-03-05T21:19:00.889Z,-4.80
2023-03-05T21:29:03.566Z,-4.75
2023-03-05T21:31:31.642Z,-4.75
2023-03-05T21:34:00.145Z,-4.74
2023-03-05T21:36:28.186Z,-4.74
2023-03-05T21:38:56.153Z,-4.77
2023-03-05T21:41:26.228Z,-4.79
2023-03-05T21:43:54.299Z,-4.83
2023-03-05T21:46:22.369Z,-4.86
2023-03-05T21:48:50.567Z,-4.93
2023-03-05T21:51:18.649Z,-4.99
2023-03-05T21:53:46.690Z,-5.04
2023-03-05T21:56:23.572Z,-5.07
2023-03-05T21:58:52.657Z,-5.12
2023-03-05T22:01:21.591Z,-5.16
2023-03-05T22:03:50.521Z,-5.21
2023-03-05T22:06:20.276Z,-5.27
2023-03-05T22:08:48.838Z,-5.32
2023-03-05T22:11:19.580Z,-5.38
2023-03-05T22:13:47.657Z,-5.42
2023-03-05T22:16:23.727Z,-5.45
2023-03-05T22:18:52.787Z,-5.45
2023-03-05T22:21:23.949Z,-5.46
2023-03-05T22:23:53.632Z,-5.46
2023-03-05T22:26:22.112Z,-5.46
2023-03-05T22:28:50.616Z,-5.44
2023-03-05T22:31:24.147Z,-5.42
2023-03-05T22:33:52.574Z,-5.43
2023-03-05T22:36:21.051Z,-5.43
2023-03-05T22:38:49.534Z,-5.43
2023-03-05T22:41:19.965Z,-5.43
2023-03-05T22:43:49.573Z,-5.46
2023-03-05T22:46:21.750Z,-5.49
2023-03-05T22:48:50.620Z,-5.52
2023-03-05T22:51:19.758Z,-5.55
2023-03-05T22:53:47.786Z,-5.54
2023-03-05T22:56:19.161Z,-5.53
2023-03-05T22:58:47.920Z,-5.50
2023-03-05T23:01:24.636Z,-5.42
2023-03-05T23:04:03.614Z,-5.36
2023-03-05T23:06:31.806Z,-5.29
2023-03-05T23:09:00.389Z,-5.23
2023-03-05T23:11:28.386Z,-5.14
2023-03-05T23:13:56.533Z,-5.06
2023-03-05T23:16:24.502Z,-4.98
2023-03-05T23:18:52.472Z,-4.86
2023-03-05T23:21:20.778Z,-4.74
2023-03-05T23:23:48.816Z,-4.64
2023-03-05T23:26:16.916Z,-4.55
2023-03-05T23:28:44.864Z,-4.45
2023-03-05T23:31:13.191Z,-4.36
2023-03-05T23:33:41.426Z,-4.28
2023-03-05T23:36:10.503Z,-4.24
2023-03-05T23:38:38.509Z,-4.18
2023-03-05T23:41:09.615Z,-4.13
2023-03-05T23:43:37.584Z,-4.11
2023-03-05T23:46:11.413Z,-4.10
2023-03-05T23:48:40.967Z,-4.10
2023-03-05T23:51:10.910Z,-4.14
2023-03-05T23:53:38.980Z,-4.21
2023-03-05T23:56:11.635Z,-4.27
2023-03-05T23:58:40.141Z,-4.31
